createdAt,value
2019-02-14T00:01:11.978Z,56201.27
2019-02-14T00:03:42.127Z,56175.56
2019-02-14T00:06:12.007Z,56166.31
2019-02-14T00:08:42.145Z,56189.96
2019-02-14T00:11:12.543Z,56180.71
2019-02-14T00:13:42.687Z,56232.12
2019-02-14T00:16:12.581Z,56200.24
2019-02-14T00:18:42.715Z,56167.34
2019-02-14T00:21:12.658Z,56190.99
2019-02-14T00:23:42.689Z,56197.16
2019-02-14T00:26:12.569Z,56171.45
2019-02-14T00:28:42.434Z,56152.94
2019-02-14T00:31:12.352Z,56160.14
2019-02-14T00:33:42.275Z,56164.25
2019-02-14T00:36:12.177Z,56234.18
2019-02-14T00:38:42.082Z,56192.02
2019-02-14T00:41:12.081Z,56199.21
2019-02-14T00:43:41.994Z,56199.21
2019-02-14T00:46:11.916Z,56163.23
2019-02-14T00:48:41.818Z,56210.52
2019-02-14T00:51:11.706Z,56214.64
2019-02-14T00:53:41.892Z,56216.70
2019-02-14T00:56:12.054Z,56218.75
2019-02-14T00:58:42.001Z,56203.33
2019-02-14T01:01:11.896Z,56182.76
2019-02-14T01:03:42.030Z,56170.42
2019-02-14T01:06:11.923Z,56178.65
2019-02-14T01:08:41.840Z,56199.21
2019-02-14T01:11:12.046Z,56221.84
2019-02-14T01:13:41.981Z,56182.76
2019-02-14T01:16:11.861Z,56195.10
2019-02-14T01:18:41.803Z,56180.71
2019-02-14T01:21:11.806Z,56188.93
2019-02-14T01:23:41.686Z,56179.68
2019-02-14T01:26:11.558Z,56163.23
2019-02-14T01:28:41.754Z,56193.05
2019-02-14T01:31:11.709Z,56253.71
2019-02-14T01:33:42.055Z,56202.30
2019-02-14T01:36:12.181Z,56205.38
2019-02-14T01:38:42.316Z,56197.16
2019-02-14T01:41:12.227Z,56188.93
2019-02-14T01:43:42.376Z,56153.97
2019-02-14T01:46:12.493Z,56204.36
2019-02-14T01:48:42.436Z,56182.76
2019-02-14T01:51:12.585Z,56170.42
2019-02-14T01:53:42.549Z,56199.21
2019-02-14T01:56:12.427Z,56170.42
2019-02-14T01:58:42.665Z,56186.87
2019-02-14T02:01:12.702Z,56190.99
2019-02-14T02:03:42.578Z,56190.99
2019-02-14T02:06:12.461Z,56187.90
2019-02-14T02:08:42.418Z,56213.61
2019-02-14T02:11:12.477Z,56189.96
2019-02-14T02:13:42.389Z,56181.73
2019-02-14T02:16:12.276Z,56165.28
2019-02-14T02:18:42.424Z,56182.76
2019-02-14T02:21:12.651Z,56203.33
2019-02-14T02:23:42.565Z,56182.76
2019-02-14T02:26:12.489Z,56233.15
2019-02-14T02:28:42.426Z,56172.48
2019-02-14T02:31:12.346Z,56179.68
2019-02-14T02:33:42.430Z,56217.72
2019-02-14T02:36:12.409Z,56165.28
2019-02-14T02:38:42.787Z,56205.38
2019-02-14T02:41:12.700Z,56196.13
2019-02-14T02:43:42.617Z,56197.16
2019-02-14T02:46:12.799Z,56192.02
2019-02-14T02:48:43.224Z,56193.05
2019-02-14T02:51:13.227Z,56184.82
2019-02-14T02:53:43.117Z,56178.65
2019-02-14T02:56:13.083Z,56185.85
2019-02-14T02:58:43.263Z,56230.06
2019-02-14T03:01:13.206Z,56198.19
2019-02-14T03:03:43.367Z,56181.73
2019-02-14T03:06:13.285Z,56199.21
2019-02-14T03:08:43.660Z,56172.48
2019-02-14T03:11:14.021Z,56205.38
2019-02-14T03:13:44.236Z,56192.02
2019-02-14T03:16:14.118Z,56224.92
2019-02-14T03:18:44.089Z,56208.47
2019-02-14T03:21:13.961Z,56138.55
2019-02-14T03:23:44.060Z,56193.05
2019-02-14T03:26:13.933Z,56190.99
2019-02-14T03:28:43.906Z,56167.34
2019-02-14T03:31:14.010Z,56198.19
2019-02-14T03:33:44.118Z,56205.38
2019-02-14T03:36:19.223Z,56192.02
2019-02-14T03:38:45.629Z,56210.52
2019-02-14T03:41:15.498Z,56197.16
2019-02-14T03:43:45.372Z,56212.58
2019-02-14T03:46:15.795Z,56226.98
2019-02-14T03:48:45.887Z,56181.73
2019-02-14T03:51:15.841Z,56233.15
2019-02-14T03:53:45.820Z,56190.99
2019-02-14T03:56:15.672Z,56162.20
2019-02-14T03:58:45.603Z,56202.30
2019-02-14T04:01:15.489Z,56214.64
2019-02-14T04:03:45.374Z,56195.10
2019-02-14T04:06:15.502Z,56197.16
2019-02-14T04:08:45.642Z,56219.78
2019-02-14T04:11:15.605Z,56179.68
2019-02-14T04:13:45.499Z,56174.54
2019-02-14T04:16:15.387Z,56193.05
2019-02-14T04:18:45.729Z,56215.67
2019-02-14T04:21:15.593Z,56189.96
2019-02-14T04:23:45.460Z,56216.70
2019-02-14T04:26:15.650Z,56187.90
2019-02-14T04:28:45.505Z,56209.50
2019-02-14T04:31:15.390Z,56195.10
2019-02-14T04:33:45.234Z,56212.58
2019-02-14T04:36:15.147Z,56186.87
2019-02-14T04:38:45.513Z,56156.03
2019-02-14T04:41:15.398Z,56208.47
2019-02-14T04:43:45.571Z,56182.76
2019-02-14T04:46:15.685Z,56182.76
2019-02-14T04:48:45.568Z,56208.47
2019-02-14T04:51:15.463Z,56172.48
2019-02-14T04:53:45.368Z,56197.16
2019-02-14T04:56:15.219Z,56189.96
2019-02-14T04:58:45.551Z,56194.07
2019-02-14T05:01:15.707Z,56232.12
2019-02-14T05:03:46.055Z,56190.99
2019-02-14T05:06:16.407Z,56172.48
2019-02-14T05:08:46.541Z,56197.16
2019-02-14T05:11:16.442Z,56193.05
2019-02-14T05:13:46.585Z,56189.96
2019-02-14T05:16:16.424Z,56187.90
2019-02-14T05:18:46.514Z,56194.07
2019-02-14T05:21:16.643Z,56200.24
2019-02-14T05:23:46.505Z,56189.96
2019-02-14T05:26:16.618Z,56208.47
2019-02-14T05:28:46.494Z,56190.99
2019-02-14T05:31:16.368Z,56199.21
2019-02-14T05:33:46.760Z,56198.19
2019-02-14T05:36:16.972Z,56204.36
2019-02-14T05:38:47.060Z,56193.05
2019-02-14T05:41:17.173Z,56219.78
2019-02-14T05:43:47.031Z,56208.47
2019-02-14T05:46:17.347Z,56184.82
2019-02-14T05:48:47.213Z,56219.78
2019-02-14T05:51:17.312Z,56172.48
2019-02-14T05:53:47.164Z,56153.97
2019-02-14T05:56:17.261Z,56208.47
2019-02-14T05:58:47.355Z,56222.87
2019-02-14T06:01:19.108Z,56199.21
2019-02-14T06:03:49.190Z,56215.67
2019-02-14T06:06:19.045Z,56187.90
2019-02-14T06:08:48.905Z,56198.19
2019-02-14T06:11:19.057Z,56189.96
2019-02-14T06:13:48.935Z,56209.50
2019-02-14T06:16:18.752Z,56243.43
2019-02-14T06:18:48.623Z,56203.33
2019-02-14T06:21:18.780Z,56205.38
2019-02-14T06:23:48.879Z,56199.21
2019-02-14T06:26:18.741Z,56190.99
2019-02-14T06:28:48.569Z,56220.81
2019-02-14T06:31:19.131Z,56244.46
2019-02-14T06:33:48.991Z,56185.85
2019-02-14T06:36:18.900Z,56192.02
2019-02-14T06:38:48.992Z,56225.95
2019-02-14T06:41:18.846Z,56174.54
2019-02-14T06:43:48.996Z,56192.02
2019-02-14T06:46:18.882Z,56210.52
2019-02-14T06:48:48.737Z,56194.07
2019-02-14T06:51:19.065Z,56210.52
2019-02-14T06:53:48.896Z,56207.44
2019-02-14T06:56:18.762Z,56240.34
2019-02-14T06:58:48.861Z,56158.09
2019-02-14T07:01:18.943Z,56207.44
2019-02-14T07:03:48.809Z,56216.70
2019-02-14T07:10:06.167Z,56214.64
2019-02-14T07:12:36.222Z,56233.15
2019-02-14T07:15:07.860Z,56207.44
2019-02-14T07:17:38.015Z,56242.40
2019-02-14T07:20:11.180Z,56175.56
2019-02-14T07:22:41.660Z,56211.55
2019-02-14T07:25:11.992Z,56197.16
2019-02-14T07:27:42.379Z,56213.61
2019-02-14T07:30:16.199Z,56174.54
2019-02-14T07:32:46.322Z,56187.90
2019-02-14T07:35:16.603Z,56199.21
2019-02-14T07:37:46.977Z,56209.50
2019-02-14T07:40:17.474Z,56215.67
2019-02-14T07:42:48.191Z,56198.19
2019-02-14T07:45:18.161Z,56225.95
2019-02-14T07:47:48.816Z,56180.71
2019-02-14T07:50:19.224Z,56181.73
2019-02-14T07:52:49.132Z,56209.50
2019-02-14T07:55:19.462Z,56226.98
2019-02-14T07:57:49.988Z,56203.33
2019-02-14T08:00:20.107Z,56203.33
2019-02-14T08:02:50.075Z,56216.70
2019-02-14T08:05:19.995Z,56189.96
2019-02-14T08:07:50.155Z,56199.21
2019-02-14T08:10:20.119Z,56223.89
2019-02-14T08:12:50.885Z,56162.20
2019-02-14T08:15:21.549Z,56229.04
2019-02-14T08:17:51.703Z,56190.99
2019-02-14T08:20:21.759Z,56185.85
2019-02-14T08:22:52.192Z,56194.07
2019-02-14T08:25:22.377Z,56184.82
2019-02-14T08:27:52.498Z,56187.90
2019-02-14T08:30:22.835Z,56186.87
2019-02-14T08:32:53.002Z,56159.11
2019-02-14T08:35:23.418Z,56174.54
2019-02-14T08:37:54.048Z,56197.16
2019-02-14T08:40:25.401Z,56197.16
2019-02-14T08:42:55.944Z,56187.90
2019-02-14T08:45:26.132Z,56205.38
2019-02-14T08:47:56.536Z,56203.33
2019-02-14T08:50:26.990Z,56161.17
2019-02-14T08:52:57.633Z,56179.68
2019-02-14T08:55:28.280Z,56168.37
2019-02-14T08:57:58.489Z,56170.42
2019-02-14T09:00:28.404Z,56180.71
2019-02-14T09:02:58.814Z,56140.61
2019-02-14T09:05:28.983Z,56170.42
2019-02-14T09:07:59.143Z,56153.97
2019-02-14T09:10:29.630Z,56174.54
2019-02-14T09:13:00.116Z,56133.41
2019-02-14T09:15:30.972Z,56162.20
2019-02-14T09:18:01.664Z,56144.71
2019-02-14T09:20:32.115Z,56159.11
2019-02-14T09:23:02.543Z,56153.97
2019-02-14T09:25:32.743Z,56105.64
2019-02-14T09:28:02.936Z,56102.56
2019-02-14T09:30:33.142Z,56012.07
2019-02-14T09:33:03.627Z,55989.45
2019-02-14T09:35:34.118Z,55991.51
2019-02-14T09:38:04.073Z,55987.40
2019-02-14T09:40:34.260Z,55985.34
2019-02-14T09:43:04.313Z,56003.85
2019-02-14T09:45:34.720Z,56003.85
2019-02-14T09:48:05.332Z,56032.64
2019-02-14T09:50:35.562Z,55999.73
2019-02-14T09:53:05.589Z,56015.16
2019-02-14T09:55:35.506Z,55971.97
2019-02-14T09:58:05.519Z,56012.07
2019-02-14T10:00:36.187Z,56052.18
2019-02-14T10:03:06.570Z,56104.62
2019-02-14T10:05:37.032Z,56105.64
2019-02-14T10:08:12.774Z,56130.32
2019-02-14T10:10:39.177Z,56119.01
2019-02-14T10:13:09.480Z,56139.57
2019-02-14T10:15:39.750Z,56175.56
2019-02-14T10:18:09.928Z,56169.39
2019-02-14T10:20:40.135Z,56165.28
2019-02-14T10:23:10.583Z,56133.41
2019-02-14T10:25:40.763Z,56174.54
2019-02-14T10:28:11.019Z,56151.91
2019-02-14T10:30:40.933Z,56188.93
2019-02-14T10:33:11.592Z,56130.32
2019-02-14T10:35:42.252Z,56143.69
2019-02-14T10:38:21.728Z,56147.80
2019-02-14T10:40:44.644Z,56140.61
2019-02-14T10:43:15.034Z,56168.37
2019-02-14T10:45:44.993Z,56153.97
2019-02-14T10:48:15.780Z,56176.59
2019-02-14T10:50:45.959Z,56172.48
2019-02-14T10:53:16.143Z,56156.03
2019-02-14T10:55:46.387Z,56149.86
2019-02-14T10:58:16.417Z,56160.14
2019-02-14T11:00:46.664Z,56135.46
2019-02-14T11:03:17.187Z,56180.71
2019-02-14T11:05:47.327Z,56150.89
2019-02-14T11:08:17.547Z,56136.49
2019-02-14T11:10:47.792Z,56163.23
2019-02-14T11:13:17.801Z,56115.93
2019-02-14T11:15:48.235Z,56121.07
2019-02-14T11:18:18.711Z,56153.97
2019-02-14T11:20:49.127Z,56166.31
2019-02-14T11:23:19.309Z,56177.62
2019-02-14T11:25:49.526Z,56116.95
2019-02-14T11:28:19.460Z,56163.23
2019-02-14T11:30:49.671Z,56156.03
2019-02-14T11:33:19.903Z,56162.20
2019-02-14T11:35:50.105Z,56170.42
2019-02-14T11:38:20.274Z,56123.12
2019-02-14T11:40:50.462Z,56148.83
2019-02-14T11:43:20.661Z,56141.63
2019-02-14T11:45:51.067Z,56138.55
2019-02-14T11:48:21.542Z,56145.75
2019-02-14T11:50:51.688Z,56157.05
2019-02-14T11:53:22.139Z,56120.04
2019-02-14T11:55:52.600Z,56147.80
2019-02-14T11:58:22.772Z,56136.49
2019-02-14T12:00:52.924Z,56147.80
2019-02-14T12:03:23.405Z,56133.41
2019-02-14T12:05:53.338Z,56102.56
2019-02-14T12:08:23.250Z,56112.84
2019-02-14T12:10:53.402Z,56119.01
2019-02-14T12:13:24.082Z,56120.04
2019-02-14T12:15:54.304Z,56148.83
2019-02-14T12:18:24.671Z,56114.90
2019-02-14T12:20:55.064Z,56119.01
2019-02-14T12:23:25.456Z,56099.47
2019-02-14T12:25:55.909Z,56098.45
2019-02-14T12:28:26.083Z,56108.73
2019-02-14T12:30:56.465Z,56101.53
2019-02-14T12:33:26.650Z,56120.04
2019-02-14T12:35:56.568Z,56108.73
2019-02-14T12:38:26.940Z,56095.36
2019-02-14T12:40:57.110Z,56104.62
2019-02-14T12:43:27.294Z,56120.04
2019-02-14T12:45:57.819Z,56125.18
2019-02-14T12:48:28.771Z,56079.94
2019-02-14T12:50:58.692Z,56102.56
2019-02-14T12:53:29.173Z,56094.33
2019-02-14T12:55:59.542Z,56111.81
2019-02-14T12:58:29.939Z,56110.79
2019-02-14T13:01:00.317Z,56079.94
2019-02-14T13:03:30.926Z,56074.80
2019-02-14T13:06:01.354Z,56082.00
2019-02-14T13:08:31.798Z,56102.56
2019-02-14T13:11:02.207Z,56094.33
2019-02-14T13:13:32.884Z,56106.67
2019-02-14T13:16:03.660Z,56102.56
2019-02-14T13:18:33.852Z,56097.42
2019-02-14T13:21:04.085Z,56057.32
2019-02-14T13:23:34.295Z,56103.59
2019-02-14T13:26:04.613Z,56090.22
2019-02-14T13:28:35.021Z,56088.16
2019-02-14T13:31:05.222Z,56074.80
2019-02-14T13:33:35.854Z,56108.73
2019-02-14T13:36:06.823Z,56050.12
2019-02-14T13:38:37.289Z,56091.25
2019-02-14T13:41:07.235Z,56054.23
2019-02-14T13:43:38.003Z,56098.45
2019-02-14T13:46:08.393Z,56103.59
2019-02-14T13:48:38.425Z,56087.14
2019-02-14T13:51:08.402Z,56074.80
2019-02-14T13:53:38.339Z,56078.91
2019-02-14T13:56:08.269Z,56084.05
2019-02-14T13:58:38.688Z,56082.00
2019-02-14T14:01:09.163Z,56107.70
2019-02-14T14:03:39.321Z,56077.88
2019-02-14T14:06:09.502Z,56093.30
2019-02-14T14:08:40.211Z,56067.60
2019-02-14T14:11:10.735Z,56055.26
2019-02-14T14:13:41.328Z,56106.67
2019-02-14T14:16:11.504Z,56078.91
2019-02-14T14:18:41.725Z,56080.96
2019-02-14T14:21:12.191Z,56073.77
2019-02-14T14:23:42.974Z,56100.50
2019-02-14T14:26:12.941Z,56098.45
2019-02-14T14:28:43.811Z,56101.53
2019-02-14T14:31:13.811Z,56084.05
2019-02-14T14:33:44.411Z,56079.94
2019-02-14T14:36:14.555Z,56077.88
2019-02-14T14:38:44.469Z,56070.68
2019-02-14T14:41:15.148Z,56061.43
2019-02-14T14:43:53.118Z,56054.23
2019-02-14T14:46:45.305Z,56057.32
2019-02-14T14:49:15.727Z,56080.96
2019-02-14T14:51:45.908Z,56065.54
2019-02-14T14:54:16.154Z,56040.86
2019-02-14T14:56:46.558Z,56120.04
2019-02-14T14:59:16.713Z,56089.19
2019-02-14T15:01:47.085Z,56086.11
2019-02-14T15:04:17.040Z,56101.53
2019-02-14T15:06:47.204Z,56082.00
2019-02-14T15:09:17.384Z,56075.82
2019-02-14T15:11:47.787Z,56093.30
2019-02-14T15:14:17.668Z,56084.05
2019-02-14T15:16:47.819Z,56077.88
2019-02-14T15:19:47.983Z,56083.02
2019-02-14T15:22:18.679Z,56093.30
2019-02-14T15:24:48.596Z,56084.05
2019-02-14T15:27:19.022Z,56104.62
2019-02-14T15:29:49.191Z,56094.33
2019-02-14T15:32:19.585Z,56139.57
2019-02-14T15:34:49.721Z,56084.05
2019-02-14T15:37:19.608Z,56090.22
2019-02-14T15:39:49.515Z,56080.96
2019-02-14T15:42:19.724Z,56110.79
2019-02-14T15:44:49.855Z,56105.64
2019-02-14T15:47:19.796Z,56087.14
2019-02-14T15:49:49.945Z,56126.21
2019-02-14T15:52:19.887Z,56092.28
2019-02-14T15:54:50.293Z,56102.56
2019-02-14T15:57:20.700Z,56105.64
2019-02-14T15:59:50.658Z,56059.37
2019-02-14T16:02:21.044Z,56108.73
2019-02-14T16:04:52.730Z,56123.12
2019-02-14T16:07:23.061Z,56138.55
2019-02-14T16:09:53.040Z,56109.76
2019-02-14T16:12:23.504Z,56122.09
2019-02-14T16:14:53.697Z,56144.71
2019-02-14T16:17:23.821Z,56166.31
2019-02-14T16:19:55.938Z,56142.66
2019-02-14T16:22:30.019Z,56141.63
2019-02-14T16:24:58.712Z,56115.93
2019-02-14T16:27:28.881Z,56152.94
2019-02-14T16:29:59.021Z,56143.69
2019-02-14T16:32:29.125Z,56141.63
2019-02-14T16:34:59.036Z,56126.21
2019-02-14T16:37:29.207Z,56117.98
2019-02-14T16:39:59.375Z,56195.10
2019-02-14T16:42:30.213Z,56197.16
2019-02-14T16:45:00.874Z,56141.63
2019-02-14T16:47:30.979Z,56149.86
2019-02-14T16:50:01.113Z,56186.87
2019-02-14T16:52:31.356Z,56138.55
2019-02-14T16:55:01.740Z,56149.86
2019-02-14T16:57:31.657Z,56143.69
2019-02-14T17:00:02.095Z,56165.28
2019-02-14T17:02:31.993Z,56160.14
2019-02-14T17:05:01.936Z,56197.16
2019-02-14T17:07:32.126Z,56137.52
2019-02-14T17:10:02.118Z,56139.57
2019-02-14T17:12:32.289Z,56144.71
2019-02-14T17:15:02.158Z,56174.54
2019-02-14T17:17:32.045Z,56166.31
2019-02-14T17:20:02.425Z,56179.68
2019-02-14T17:22:32.320Z,56155.00
2019-02-14T17:25:02.735Z,56123.12
2019-02-14T17:27:33.147Z,56141.63
2019-02-14T17:30:03.294Z,56156.03
2019-02-14T17:32:33.155Z,56192.02
2019-02-14T17:35:03.428Z,56165.28
2019-02-14T17:37:33.332Z,56145.75
2019-02-14T17:40:04.573Z,56145.75
2019-02-14T17:42:34.858Z,56160.14
2019-02-14T17:45:05.328Z,56168.37
2019-02-14T17:47:35.564Z,56165.28
2019-02-14T17:50:06.128Z,56176.59
2019-02-14T17:52:36.444Z,56209.50
2019-02-14T17:55:07.160Z,56178.65
2019-02-14T17:57:37.058Z,56161.17
2019-02-14T18:00:08.490Z,56178.65
2019-02-14T18:02:38.647Z,56160.14
2019-02-14T18:05:09.263Z,56172.48
2019-02-14T18:07:39.821Z,56156.03
2019-02-14T18:10:11.365Z,56177.62
2019-02-14T18:12:43.258Z,56155.00
2019-02-14T18:15:13.938Z,56200.24
2019-02-14T18:17:43.862Z,56158.09
2019-02-14T18:20:14.072Z,56141.63
2019-02-14T18:22:44.237Z,56187.90
2019-02-14T18:25:14.801Z,56170.42
2019-02-14T18:27:45.607Z,56168.37
2019-02-14T18:30:16.416Z,56160.14
2019-02-14T18:32:46.947Z,56200.24
2019-02-14T18:35:17.148Z,56196.13
2019-02-14T18:37:47.562Z,56181.73
2019-02-14T18:40:17.468Z,56179.68
2019-02-14T18:42:47.545Z,56176.59
2019-02-14T18:45:17.689Z,56208.47
2019-02-14T18:47:47.893Z,56178.65
2019-02-14T18:50:18.389Z,56184.82
2019-02-14T18:52:48.785Z,56184.82
2019-02-14T18:55:18.975Z,56209.50
2019-02-14T18:57:49.413Z,56166.31
2019-02-14T19:00:19.553Z,56214.64
2019-02-14T19:02:49.463Z,56206.41
2019-02-14T19:05:19.575Z,56190.99
2019-02-14T19:07:49.705Z,56179.68
2019-02-14T19:10:20.017Z,56168.37
2019-02-14T19:12:50.967Z,56198.19
2019-02-14T19:15:20.873Z,56189.96
2019-02-14T19:17:50.833Z,56225.95
2019-02-14T19:20:20.972Z,56224.92
2019-02-14T19:22:51.367Z,56177.62
2019-02-14T19:25:21.294Z,56169.39
2019-02-14T19:27:51.466Z,56208.47
2019-02-14T19:30:21.839Z,56184.82
2019-02-14T19:32:51.710Z,56213.61
2019-02-14T19:35:23.377Z,56219.78
2019-02-14T19:37:53.991Z,56203.33
2019-02-14T19:40:23.909Z,56182.76
2019-02-14T19:42:54.301Z,56206.41
2019-02-14T19:45:24.698Z,56213.61
2019-02-14T19:47:54.662Z,56180.71
2019-02-14T19:50:25.153Z,56184.82
2019-02-14T19:52:55.235Z,56167.34
2019-02-14T19:55:25.107Z,56168.37
2019-02-14T19:57:55.746Z,56222.87
2019-02-14T20:00:25.935Z,56188.93
2019-02-14T20:02:56.117Z,56201.27
2019-02-14T20:05:26.352Z,56194.07
2019-02-14T20:07:56.526Z,56174.54
2019-02-14T20:10:26.685Z,56223.89
2019-02-14T20:12:56.679Z,56183.79
2019-02-14T20:15:36.445Z,56216.70
2019-02-14T20:17:59.519Z,56198.19
2019-02-14T20:20:29.700Z,56238.29
2019-02-14T20:22:59.792Z,56208.47
2019-02-14T20:25:29.699Z,56203.33
2019-02-14T20:28:00.085Z,56183.79
2019-02-14T20:30:30.738Z,56210.52
2019-02-14T20:33:04.851Z,56218.75
2019-02-14T20:35:32.481Z,56232.12
2019-02-14T20:38:03.134Z,56199.21
2019-02-14T20:40:33.312Z,56197.16
2019-02-14T20:43:03.721Z,56222.87
2019-02-14T20:45:33.914Z,56209.50
2019-02-14T20:48:04.184Z,56186.87
2019-02-14T20:50:34.384Z,56221.84
2019-02-14T20:53:04.582Z,56211.55
2019-02-14T20:55:35.328Z,56211.55
2019-02-14T20:58:05.530Z,56228.01
2019-02-14T21:00:37.061Z,56210.52
2019-02-14T21:03:07.124Z,56198.19
2019-02-14T21:05:37.096Z,56216.70
2019-02-14T21:08:07.350Z,56203.33
2019-02-14T21:10:37.743Z,56203.33
2019-02-14T21:13:07.923Z,56184.82
2019-02-14T21:15:38.220Z,56204.36
2019-02-14T21:18:08.896Z,56236.23
2019-02-14T21:20:39.136Z,56216.70
2019-02-14T21:23:09.816Z,56174.54
2019-02-14T21:25:40.219Z,56187.90
2019-02-14T21:28:10.443Z,56195.10
2019-02-14T21:30:40.847Z,56204.36
2019-02-14T21:33:10.799Z,56247.54
2019-02-14T21:35:40.990Z,56199.21
2019-02-14T21:38:11.138Z,56194.07
2019-02-14T21:40:41.053Z,56204.36
2019-02-14T21:43:10.926Z,56180.71
2019-02-14T21:45:41.104Z,56201.27
2019-02-14T21:48:18.396Z,56222.87
2019-02-14T21:50:48.268Z,56186.87
2019-02-14T21:53:18.916Z,56186.87
2019-02-14T21:55:49.058Z,56206.41
2019-02-14T21:58:19.757Z,56197.16
2019-02-14T22:00:49.689Z,56182.76
2019-02-14T22:03:19.963Z,56218.75
2019-02-14T22:05:50.167Z,56216.70
2019-02-14T22:08:20.597Z,56180.71
2019-02-14T22:10:50.564Z,56209.50
2019-02-14T22:13:20.782Z,56198.19
2019-02-14T22:15:51.109Z,56204.36
2019-02-14T22:18:21.601Z,56196.13
2019-02-14T22:20:51.846Z,56192.02
2019-02-14T22:23:22.027Z,56207.44
2019-02-14T22:25:51.992Z,56219.78
2019-02-14T22:28:22.156Z,56222.87
2019-02-14T22:30:52.330Z,56192.02
2019-02-14T22:33:22.738Z,56205.38
2019-02-14T22:35:52.919Z,56228.01
2019-02-14T22:38:22.893Z,56203.33
2019-02-14T22:40:53.282Z,56200.24
2019-02-14T22:43:24.900Z,56211.55
2019-02-14T22:45:55.084Z,56211.55
2019-02-14T22:48:25.762Z,56258.86
2019-02-14T22:50:55.704Z,56210.52
2019-02-14T22:53:25.893Z,56206.41
2019-02-14T22:55:55.809Z,56186.87
2019-02-14T22:58:26.166Z,56208.47
2019-02-14T23:00:59.586Z,56204.36
2019-02-14T23:03:29.849Z,56179.68
2019-02-14T23:06:00.397Z,56215.67
2019-02-14T23:08:30.623Z,56205.38
2019-02-14T23:11:01.286Z,56211.55
2019-02-14T23:13:31.934Z,56217.72
2019-02-14T23:16:02.490Z,56188.93
2019-02-14T23:18:32.697Z,56183.79
2019-02-14T23:21:02.891Z,56184.82
2019-02-14T23:23:33.307Z,56170.42
2019-02-14T23:26:03.727Z,56198.19
2019-02-14T23:28:33.956Z,56193.05
2019-02-14T23:31:04.349Z,56212.58
2019-02-14T23:33:34.313Z,56214.64
2019-02-14T23:36:04.732Z,56207.44
2019-02-14T23:38:34.956Z,56187.90
2019-02-14T23:41:04.877Z,56205.38
2019-02-14T23:43:34.866Z,56204.36
2019-02-14T23:46:05.614Z,56196.13
2019-02-14T23:48:35.839Z,56200.24
2019-02-14T23:51:06.266Z,56182.76
2019-02-14T23:53:36.436Z,56209.50
2019-02-14T23:56:06.376Z,56218.75
2019-02-14T23:58:36.543Z,56194.07
